createdAt,value
2019-03-28T00:04:19.720Z,9.10
2019-03-28T00:09:23.976Z,9.00
2019-03-28T00:14:28.262Z,9.00
2019-03-28T00:19:32.785Z,8.90
2019-03-28T00:24:42.481Z,9.00
2019-03-28T00:29:46.685Z,9.00
2019-03-28T00:34:50.918Z,9.10
2019-03-28T00:39:55.351Z,9.20
2019-03-28T00:45:00.003Z,9.10
2019-03-28T00:50:04.437Z,9.10
2019-03-28T00:55:08.773Z,9.10
2019-03-28T01:00:14.347Z,8.90
2019-03-28T01:05:18.988Z,9.10
2019-03-28T01:10:23.223Z,9.10
2019-03-28T01:15:27.578Z,9.10
2019-03-28T01:20:32.137Z,9.10
2019-03-28T01:25:36.407Z,9.00
2019-03-28T01:30:40.656Z,8.90
2019-03-28T01:35:44.878Z,8.90
2019-03-28T01:40:49.248Z,9.00
2019-03-28T01:45:53.834Z,8.90
2019-03-28T01:50:58.081Z,9.00
2019-03-28T01:56:02.318Z,8.90
2019-03-28T02:01:06.794Z,8.80
2019-03-28T02:06:11.023Z,8.80
2019-03-28T02:11:15.281Z,8.60
2019-03-28T02:16:19.685Z,8.60
2019-03-28T02:21:24.135Z,8.50
2019-03-28T02:26:28.344Z,8.50
2019-03-28T02:31:32.850Z,8.40
2019-03-28T02:36:37.053Z,8.40
2019-03-28T02:41:41.259Z,8.40
2019-03-28T02:46:45.450Z,8.40
2019-03-28T02:51:49.658Z,8.40
2019-03-28T02:56:54.148Z,8.40
2019-03-28T03:01:58.350Z,8.50
2019-03-28T03:07:02.883Z,8.40
2019-03-28T03:12:07.072Z,8.40
2019-03-28T03:17:11.294Z,8.30
2019-03-28T03:22:15.510Z,8.40
2019-03-28T03:27:19.717Z,8.30
2019-03-28T03:32:23.904Z,8.30
2019-03-28T03:37:29.752Z,8.20
2019-03-28T03:42:34.282Z,8.10
2019-03-28T03:47:38.577Z,8.20
2019-03-28T03:52:42.761Z,8.00
2019-03-28T03:57:47.059Z,8.10
2019-03-28T04:02:51.633Z,8.10
2019-03-28T04:07:55.829Z,8.10
2019-03-28T04:13:00.394Z,8.10
2019-03-28T04:18:04.922Z,8.10
2019-03-28T04:23:09.119Z,8.00
2019-03-28T04:28:24.794Z,8.10
2019-03-28T04:33:19.530Z,8.10
2019-03-28T04:38:24.592Z,8.00
2019-03-28T04:43:29.072Z,8.10
2019-03-28T04:48:33.625Z,8.20
2019-03-28T04:53:37.834Z,8.30
2019-03-28T04:58:44.809Z,8.30
2019-03-28T05:03:48.045Z,8.20
2019-03-28T05:08:52.242Z,8.10
2019-03-28T05:13:56.444Z,8.10
2019-03-28T05:19:01.008Z,8.10
2019-03-28T05:24:05.227Z,8.20
2019-03-28T05:29:09.430Z,8.30
2019-03-28T05:34:14.009Z,8.30
2019-03-28T05:39:18.198Z,8.50
2019-03-28T05:44:22.528Z,8.40
2019-03-28T05:49:27.125Z,8.40
2019-03-28T05:54:31.309Z,8.50
2019-03-28T05:59:35.785Z,8.50
2019-03-28T06:04:39.989Z,8.60
2019-03-28T06:09:44.581Z,8.60
2019-03-28T06:14:48.936Z,8.60
2019-03-28T06:19:53.159Z,8.70
2019-03-28T06:24:57.394Z,8.70
2019-03-28T06:30:20.806Z,8.70
2019-03-28T06:35:25.005Z,8.80
2019-03-28T06:40:29.232Z,8.90
2019-03-28T06:45:33.448Z,8.90
2019-03-28T06:50:37.864Z,8.90
2019-03-28T06:55:42.359Z,9.10
2019-03-28T07:00:47.107Z,9.10
2019-03-28T07:05:51.300Z,9.10
2019-03-28T07:10:57.900Z,9.00
2019-03-28T07:16:01.453Z,9.10
2019-03-28T07:21:05.677Z,9.00
2019-03-28T07:26:09.928Z,9.10
2019-03-28T07:31:14.149Z,9.20
2019-03-28T07:36:18.417Z,9.10
2019-03-28T07:41:22.710Z,9.10
2019-03-28T07:46:26.906Z,9.00
2019-03-28T07:51:31.118Z,9.10
2019-03-28T07:56:35.346Z,9.10
2019-03-28T08:01:39.587Z,9.20
2019-03-28T08:06:49.551Z,9.30
2019-03-28T08:11:49.710Z,9.40
2019-03-28T08:16:53.943Z,9.50
2019-03-28T08:21:58.449Z,9.40
2019-03-28T08:27:02.701Z,9.50
2019-03-28T08:32:13.449Z,9.50
2019-03-28T08:37:17.218Z,9.60
2019-03-28T08:42:21.511Z,9.80
2019-03-28T08:47:25.718Z,9.80
2019-03-28T08:52:29.938Z,9.90
2019-03-28T08:57:34.179Z,9.70
2019-03-28T09:02:38.404Z,10.00
2019-03-28T09:07:42.925Z,10.10
2019-03-28T09:12:47.190Z,10.10
2019-03-28T09:17:51.397Z,9.90
2019-03-28T09:22:55.938Z,9.80
2019-03-28T09:28:00.173Z,9.80
2019-03-28T09:33:05.009Z,9.90
2019-03-28T09:38:09.290Z,9.90
2019-03-28T09:43:13.505Z,10.00
2019-03-28T09:48:17.705Z,10.00
2019-03-28T09:53:22.171Z,10.00
2019-03-28T09:58:26.374Z,10.10
2019-03-28T10:03:30.645Z,10.10
2019-03-28T10:08:34.937Z,10.10
2019-03-28T10:13:39.435Z,10.10
2019-03-28T10:18:43.641Z,10.10
2019-03-28T10:23:47.855Z,10.30
2019-03-28T10:28:52.134Z,10.20
2019-03-28T10:33:56.414Z,10.30
2019-03-28T10:39:00.903Z,10.30
2019-03-28T10:44:05.190Z,10.40
2019-03-28T10:49:09.403Z,10.50
2019-03-28T10:54:19.980Z,10.30
2019-03-28T10:59:23.468Z,10.10
2019-03-28T11:04:26.358Z,10.30
2019-03-28T11:09:31.117Z,10.40
2019-03-28T11:14:35.361Z,10.40
2019-03-28T11:19:39.582Z,10.60
2019-03-28T11:24:46.340Z,10.50
2019-03-28T11:29:49.682Z,10.40
2019-03-28T11:34:54.139Z,10.50
2019-03-28T11:39:58.368Z,10.50
2019-03-28T11:45:02.573Z,10.50
2019-03-28T11:50:07.961Z,10.50
2019-03-28T11:55:12.318Z,10.50
2019-03-28T12:00:18.241Z,10.50
2019-03-28T12:05:22.451Z,10.60
2019-03-28T12:10:26.748Z,10.70
2019-03-28T12:15:30.940Z,10.70
2019-03-28T12:20:35.168Z,10.90
2019-03-28T12:25:39.613Z,10.80
2019-03-28T12:30:44.031Z,10.60
2019-03-28T12:35:48.331Z,10.60
2019-03-28T12:40:53.144Z,10.60
2019-03-28T12:45:57.470Z,10.50
2019-03-28T12:51:01.756Z,10.60
2019-03-28T12:56:05.993Z,10.50
2019-03-28T13:01:10.178Z,10.60
2019-03-28T13:06:14.455Z,10.60
2019-03-28T13:11:19.572Z,10.60
2019-03-28T13:16:24.515Z,10.50
2019-03-28T13:21:28.733Z,10.50
2019-03-28T13:26:33.265Z,10.70
2019-03-28T13:31:37.476Z,10.50
2019-03-28T13:36:41.682Z,10.50
2019-03-28T13:41:46.179Z,10.50
2019-03-28T13:46:50.681Z,10.60
2019-03-28T13:51:54.890Z,10.50
2019-03-28T13:56:59.106Z,10.70
2019-03-28T14:07:13.513Z,11.10
2019-03-28T14:12:17.807Z,11.20
2019-03-28T14:17:22.078Z,11.10
2019-03-28T14:22:26.419Z,10.90
2019-03-28T14:27:31.266Z,10.80
2019-03-28T14:32:35.822Z,10.80
2019-03-28T14:37:40.864Z,11.10
2019-03-28T14:42:45.523Z,11.10
2019-03-28T14:47:49.862Z,11.10
2019-03-28T14:52:54.605Z,11.00
2019-03-28T14:57:59.782Z,11.00
2019-03-28T15:03:04.416Z,10.80
2019-03-28T15:08:08.633Z,10.70
2019-03-28T15:13:13.494Z,10.80
2019-03-28T15:18:18.131Z,10.70
2019-03-28T15:23:22.661Z,10.80
2019-03-28T15:28:27.020Z,10.80
2019-03-28T15:33:39.443Z,10.90
2019-03-28T15:38:37.955Z,10.90
2019-03-28T15:44:01.064Z,11.00
2019-03-28T15:49:06.396Z,11.00
2019-03-28T15:54:10.817Z,10.80
2019-03-28T15:59:16.978Z,10.70
2019-03-28T16:04:24.826Z,10.60
2019-03-28T16:09:57.380Z,10.50
2019-03-28T16:15:05.614Z,10.50
2019-03-28T16:20:15.471Z,10.50
2019-03-28T16:25:22.087Z,10.60
2019-03-28T16:30:46.908Z,10.70
2019-03-28T16:36:56.886Z,10.60
2019-03-28T17:00:59.477Z,10.70
2019-03-28T17:07:04.871Z,10.60
2019-03-28T17:12:15.697Z,10.50
2019-03-28T17:37:39.131Z,10.30
2019-03-28T18:35:44.580Z,10.30
2019-03-28T18:41:39.037Z,10.30
2019-03-28T19:59:08.727Z,10.00
2019-03-28T20:03:15.901Z,10.00
2019-03-28T20:08:20.114Z,9.90
2019-03-28T20:13:24.353Z,10.00
2019-03-28T20:18:28.700Z,10.00
2019-03-28T20:23:35.465Z,10.00
2019-03-28T20:28:42.998Z,10.00
2019-03-28T20:33:48.953Z,9.90
2019-03-28T20:39:06.206Z,9.90
2019-03-28T20:44:11.796Z,9.90
2019-03-28T20:49:16.305Z,9.90
2019-03-28T20:54:21.230Z,10.00
2019-03-28T20:59:25.949Z,10.10
2019-03-28T21:04:31.706Z,10.00
2019-03-28T21:09:36.339Z,10.00
2019-03-28T21:14:40.954Z,10.10
2019-03-28T21:19:45.234Z,10.00
2019-03-28T21:24:50.130Z,10.00
2019-03-28T21:29:55.066Z,10.00
2019-03-28T21:34:59.412Z,10.10
2019-03-28T21:40:04.158Z,10.10
2019-03-28T21:45:10.599Z,10.00
2019-03-28T21:50:15.024Z,10.00
2019-03-28T21:55:19.740Z,9.90
2019-03-28T22:00:24.236Z,9.90
2019-03-28T22:05:28.946Z,9.90
2019-03-28T22:10:33.832Z,9.90
2019-03-28T22:15:38.468Z,9.90
2019-03-28T22:20:43.698Z,9.90
2019-03-28T22:25:49.319Z,9.80
2019-03-28T22:30:53.531Z,10.00
2019-03-28T22:36:00.989Z,10.00
2019-03-28T22:41:05.202Z,10.00
2019-03-28T22:46:09.870Z,9.80
2019-03-28T22:51:14.298Z,9.80
2019-03-28T22:56:18.526Z,10.10
2019-03-28T23:01:22.901Z,10.10
2019-03-28T23:06:27.188Z,10.00
2019-03-28T23:11:31.759Z,10.00
2019-03-28T23:16:35.976Z,10.00
2019-03-28T23:21:41.605Z,9.80
2019-03-28T23:26:45.921Z,9.70
2019-03-28T23:31:50.847Z,9.70
